Time;durP1;ratioP1;P1;durP2;ratioP2;P2;SDS_P1;SDS_P2;PMS_P1;PMS_P2;Temp;Humidity;BMP_temperature;BMP_pressure;BME280_temperature;BME280_humidity;BME280_pressure;Samples;Min_cycle;Max_cycle;Signal;HPM_P1;HPM_P2
2024/01/12 00:00:29;;;;;;;2.60;1.23;;;;;;;-0.90;89.70;101913.47;5106953;28;20087;-67
2024/01/12 00:02:54;;;;;;;2.03;1.90;;;;;;;-0.82;89.46;101911.41;5105753;28;20016;-67
2024/01/12 00:05:19;;;;;;;0.75;0.75;;;;;;;-0.78;89.62;101921.00;5105505;28;20016;-68
2024/01/12 00:07:45;;;;;;;1.13;1.02;;;;;;;-0.82;89.77;101913.97;5106808;28;20035;-68
2024/01/12 00:10:10;;;;;;;3.50;2.35;;;;;;;-0.78;89.68;101923.56;5105765;28;20046;-67
2024/01/12 00:12:36;;;;;;;1.17;1.02;;;;;;;-0.77;89.75;101927.88;5106741;28;20456;-68
2024/01/12 00:15:02;;;;;;;1.48;1.27;;;;;;;-0.80;89.87;101921.72;5106938;28;20046;-68
2024/01/12 00:17:28;;;;;;;0.77;0.77;;;;;;;-0.81;89.78;101922.47;5106956;28;20028;-68
2024/01/12 00:19:53;;;;;;;0.80;0.80;;;;;;;-0.79;89.99;101921.81;5107028;28;20031;-68
2024/01/12 00:22:18;;;;;;;14.45;1.50;;;;;;;-0.77;90.00;101921.91;5106342;28;20046;-67
2024/01/12 00:24:44;;;;;;;0.88;0.88;;;;;;;-0.80;90.11;101916.59;5106763;28;20020;-67
2024/01/12 00:27:09;;;;;;;3.35;1.67;;;;;;;-0.79;90.11;101914.16;5105282;28;20464;-68
2024/01/12 00:29:34;;;;;;;2.17;1.38;;;;;;;-0.72;90.04;101922.19;5106637;28;20016;-68
2024/01/12 00:32:00;;;;;;;1.25;0.80;;;;;;;-0.70;90.26;101920.63;5106548;28;20024;-68
2024/01/12 00:34:25;;;;;;;1.27;1.20;;;;;;;-0.67;90.52;101910.59;5105173;28;20510;-69
2024/01/12 00:36:53;;;;;;;1.80;1.30;;;;;;;-0.59;90.29;101903.44;5106327;28;20383;-67
2024/01/12 00:39:19;;;;;;;1.63;1.33;;;;;;;-0.53;89.88;101903.81;5105090;28;20026;-68
2024/01/12 00:41:44;;;;;;;0.70;0.70;;;;;;;-0.52;90.00;101891.13;5105024;28;20016;-67
2024/01/12 00:44:10;;;;;;;0.60;0.60;;;;;;;-0.52;89.99;101891.13;5106366;28;20039;-68
2024/01/12 00:46:36;;;;;;;0.82;0.77;;;;;;;-0.39;90.23;101892.78;5104732;28;20035;-68
2024/01/12 00:49:01;;;;;;;2.33;1.85;;;;;;;-0.33;90.51;101894.81;5106538;28;20058;-68
2024/01/12 00:51:26;;;;;;;1.35;1.30;;;;;;;-0.25;90.77;101897.81;5106082;28;20028;-68
2024/01/12 00:53:52;;;;;;;1.02;1.02;;;;;;;-0.19;90.94;101884.56;5106134;28;20020;-68
2024/01/12 00:56:17;;;;;;;2.70;1.15;;;;;;;-0.12;90.94;101881.56;5105970;28;20043;-68
2024/01/12 00:58:43;;;;;;;1.95;1.45;;;;;;;-0.04;91.18;101876.91;5106108;28;20035;-67
2024/01/12 01:01:09;;;;;;;2.30;1.60;;;;;;;0.01;91.28;101872.06;5104658;28;20020;-67
2024/01/12 01:03:36;;;;;;;0.85;0.85;;;;;;;0.07;91.09;101859.66;5105980;28;20032;-67
2024/01/12 01:06:02;;;;;;;0.70;0.70;;;;;;;0.06;91.09;101852.81;5104457;28;20017;-68
2024/01/12 01:08:27;;;;;;;1.05;1.00;;;;;;;0.05;90.88;101843.38;5105889;28;20093;-68
2024/01/12 01:10:53;;;;;;;3.80;1.00;;;;;;;0.03;90.77;101844.97;5106092;28;20024;-68
2024/01/12 01:13:18;;;;;;;0.95;0.95;;;;;;;0.04;91.01;101828.84;5105724;28;20246;-68
2024/01/12 01:15:43;;;;;;;1.58;1.30;;;;;;;0.04;91.10;101833.94;5105631;28;20020;-67
2024/01/12 01:18:10;;;;;;;2.35;1.48;;;;;;;0.03;90.77;101825.44;5106082;28;20016;-68
2024/01/12 01:20:36;;;;;;;1.20;1.10;;;;;;;-0.02;90.81;101830.22;5105815;28;20027;-68
2024/01/12 01:23:02;;;;;;;1.65;1.55;;;;;;;-0.16;90.70;101813.25;5105423;28;20453;-67
2024/01/12 01:25:27;;;;;;;1.92;1.42;;;;;;;-0.13;90.62;101823.66;5105800;28;20051;-67
2024/01/12 01:27:54;;;;;;;0.90;0.90;;;;;;;-0.08;90.75;101826.47;5104233;28;20357;-68
2024/01/12 01:30:20;;;;;;;1.10;1.00;;;;;;;-0.10;90.78;101833.16;5105608;28;20024;-67
2024/01/12 01:32:47;;;;;;;0.90;0.80;;;;;;;-0.07;90.78;101833.31;5105347;28;20105;-67
2024/01/12 01:35:13;;;;;;;0.70;0.70;;;;;;;-0.09;90.94;101825.56;5105293;28;20078;-67
2024/01/12 01:37:38;;;;;;;1.58;1.40;;;;;;;-0.02;91.08;101829.38;5105203;28;20043;-67
2024/01/12 01:40:07;;;;;;;0.70;0.70;;;;;;;0.02;90.91;101838.97;5105370;28;20030;-67
2024/01/12 01:42:32;;;;;;;1.50;1.40;;;;;;;-0.10;90.26;101844.25;5103888;28;20027;-67
2024/01/12 01:44:57;;;;;;;1.27;1.17;;;;;;;-0.17;89.95;101830.25;5105549;28;20016;-67
2024/01/12 01:47:23;;;;;;;8.10;3.17;;;;;;;-0.20;89.88;101835.16;5103928;28;20020;-67
2024/01/12 01:49:49;;;;;;;1.70;1.60;;;;;;;-0.24;89.52;101825.56;5105265;28;20083;-68
2024/01/12 01:52:14;;;;;;;0.50;0.50;;;;;;;-0.32;90.13;101825.09;5104932;28;20031;-67
2024/01/12 01:54:40;;;;;;;1.42;1.38;;;;;;;-0.31;89.89;101836.19;5105270;28;20031;-67
2024/01/12 01:57:06;;;;;;;0.77;0.77;;;;;;;-0.34;89.85;101828.34;5104039;28;20039;-68
2024/01/12 01:59:31;;;;;;;0.82;0.82;;;;;;;-0.30;89.95;101814.97;5104394;28;20024;-68
2024/01/12 02:01:57;;;;;;;0.60;0.60;;;;;;;-0.31;90.25;101808.13;5102346;28;20119;-68
2024/01/12 02:04:22;;;;;;;0.90;0.90;;;;;;;-0.32;90.90;101807.22;5103486;28;20111;-67
2024/01/12 02:06:48;;;;;;;2.45;1.20;;;;;;;-0.31;90.27;101821.78;5104923;28;20658;-68
2024/01/12 02:09:13;;;;;;;1.40;1.35;;;;;;;-0.41;89.83;101811.78;5105065;28;20024;-68
2024/01/12 02:11:38;;;;;;;0.90;0.85;;;;;;;-0.45;89.41;101807.31;5105103;28;20081;-66
2024/01/12 02:14:06;;;;;;;0.57;0.57;;;;;;;-0.52;89.21;101804.41;5104962;28;20023;-68
2024/01/12 02:16:34;;;;;;;0.77;0.77;;;;;;;-0.42;89.65;101797.28;5104916;28;20380;-67
2024/01/12 02:18:59;;;;;;;1.67;1.58;;;;;;;-0.44;90.26;101786.09;5105071;28;20024;-67
2024/01/12 02:21:24;;;;;;;0.77;0.77;;;;;;;-0.46;89.93;101798.75;5104868;28;20020;-68
2024/01/12 02:23:50;;;;;;;1.95;1.85;;;;;;;-0.47;89.85;101785.91;5104818;28;20087;-68
2024/01/12 02:26:15;;;;;;;0.80;0.80;;;;;;;-0.52;89.94;101799.28;5105010;28;20020;-66
2024/01/12 02:28:41;;;;;;;1.20;1.20;;;;;;;-0.56;89.77;101792.22;5104890;28;20031;-67
2024/01/12 02:31:06;;;;;;;3.50;1.98;;;;;;;-0.66;89.71;101787.38;5103729;28;20176;-69
2024/01/12 02:33:32;;;;;;;3.33;1.13;;;;;;;-0.51;89.85;101784.84;5104801;28;20127;-68
2024/01/12 02:35:57;;;;;;;2.15;1.98;;;;;;;-0.50;90.23;101792.59;5104619;28;20024;-67
2024/01/12 02:38:22;;;;;;;1.23;0.98;;;;;;;-0.54;90.40;101775.34;5103159;28;20077;-66
2024/01/12 02:40:47;;;;;;;0.88;0.88;;;;;;;-0.48;90.11;101766.31;5104923;28;20024;-68
2024/01/12 02:43:13;;;;;;;0.95;0.93;;;;;;;-0.53;90.66;101769.44;5104736;28;20404;-67
2024/01/12 02:45:38;;;;;;;1.40;1.30;;;;;;;-0.56;90.37;101770.97;5104894;28;20031;-67
2024/01/12 02:48:04;;;;;;;1.50;1.40;;;;;;;-0.57;90.47;101764.06;5104724;28;20486;-66
2024/01/12 02:50:29;;;;;;;2.00;1.30;;;;;;;-0.62;90.54;101774.00;5104790;28;20103;-67
2024/01/12 02:52:54;;;;;;;0.68;0.65;;;;;;;-0.66;90.56;101744.91;5104534;28;20467;-67
2024/01/12 02:55:20;;;;;;;0.55;0.55;;;;;;;-0.55;90.93;101758.28;5104686;28;20020;-68
2024/01/12 02:57:45;;;;;;;1.30;1.20;;;;;;;-0.52;91.05;101738.06;5104708;28;20418;-68
2024/01/12 03:00:11;;;;;;;1.02;0.95;;;;;;;-0.47;91.19;101735.78;5104733;28;20048;-67
2024/01/12 03:02:36;;;;;;;0.50;0.50;;;;;;;-0.57;91.27;101721.59;5104470;28;20024;-68
2024/01/12 03:05:02;;;;;;;0.68;0.68;;;;;;;-0.34;91.52;101745.03;5103432;28;20020;-68
2024/01/12 03:07:27;;;;;;;1.08;1.08;;;;;;;-0.32;91.57;101740.88;5104287;28;20065;-68
2024/01/12 03:09:52;;;;;;;0.50;0.50;;;;;;;-0.30;91.81;101733.31;5103467;28;20563;-68
2024/01/12 03:12:18;;;;;;;0.60;0.60;;;;;;;-0.19;91.78;101736.50;5107572;28;20050;-68
2024/01/12 03:14:43;;;;;;;0.70;0.70;;;;;;;-0.09;92.01;101737.88;5108272;28;20016;-68
2024/01/12 03:17:08;;;;;;;1.27;1.17;;;;;;;-0.11;91.82;101726.72;5107783;28;20024;-68
2024/01/12 03:19:34;;;;;;;0.63;0.63;;;;;;;-0.09;91.90;101723.44;5108181;28;20537;-67
2024/01/12 03:21:59;;;;;;;0.80;0.80;;;;;;;-0.10;91.95;101716.59;5107996;28;20023;-68
2024/01/12 03:24:24;;;;;;;0.52;0.52;;;;;;;-0.14;91.65;101704.44;5106581;28;20046;-68
2024/01/12 03:26:50;;;;;;;0.52;0.52;;;;;;;-0.13;91.54;101709.63;5107994;28;20024;-68
2024/01/12 03:29:15;;;;;;;1.40;0.85;;;;;;;-0.12;91.80;101702.84;5106602;28;20024;-68
2024/01/12 03:31:41;;;;;;;0.93;0.93;;;;;;;-0.04;91.95;101716.94;5107742;28;20024;-68
2024/01/12 03:34:06;;;;;;;1.85;1.13;;;;;;;-0.02;92.07;101704.25;5106163;28;20059;-68
2024/01/12 03:36:31;;;;;;;5.88;1.25;;;;;;;0.11;92.15;101704.13;5105842;28;20020;-68
2024/01/12 03:38:57;;;;;;;8.77;1.02;;;;;;;0.19;92.08;101696.03;5106193;28;20471;-69
2024/01/12 03:41:22;;;;;;;0.60;0.60;;;;;;;0.19;92.11;101691.78;5107725;28;20022;-68
2024/01/12 03:43:47;;;;;;;0.65;0.65;;;;;;;0.22;91.65;101684.28;5107600;28;20479;-68
2024/01/12 03:46:13;;;;;;;0.60;0.60;;;;;;;0.17;91.65;101670.41;5106269;28;20051;-68
2024/01/12 03:48:40;;;;;;;0.50;0.50;;;;;;;0.24;91.45;101682.72;5107598;28;20035;-68
2024/01/12 03:51:06;;;;;;;0.93;0.93;;;;;;;0.31;91.32;101689.03;5107260;28;20039;-68
2024/01/12 03:53:31;;;;;;;0.55;0.55;;;;;;;0.30;91.30;101682.19;5107242;28;20024;-68
2024/01/12 03:55:57;;;;;;;0.60;0.60;;;;;;;0.31;91.13;101680.47;5106938;28;20021;-68
2024/01/12 03:58:22;;;;;;;1.25;0.98;;;;;;;0.29;90.93;101688.06;5107381;28;20027;-68
2024/01/12 04:00:47;;;;;;;0.60;0.60;;;;;;;0.35;90.78;101682.44;5107197;28;20020;-68
2024/01/12 04:03:13;;;;;;;0.65;0.65;;;;;;;0.42;90.83;101675.94;5107358;28;20066;-69
2024/01/12 04:05:39;;;;;;;1.52;1.42;;;;;;;0.40;91.15;101669.91;5107275;28;20072;-68
2024/01/12 04:08:04;;;;;;;0.88;0.82;;;;;;;0.42;91.31;101671.72;5107038;28;20026;-68
2024/01/12 04:10:30;;;;;;;0.57;0.57;;;;;;;0.37;91.08;101652.72;5107609;28;20106;-68
2024/01/12 04:12:55;;;;;;;1.13;1.13;;;;;;;0.35;91.23;101654.31;5105752;28;20111;-67
2024/01/12 04:15:20;;;;;;;0.77;0.70;;;;;;;0.28;91.34;101652.22;5107161;28;20520;-67
2024/01/12 04:17:46;;;;;;;1.20;1.10;;;;;;;0.11;90.90;101640.28;5107028;28;20024;-68
2024/01/12 04:20:11;;;;;;;0.50;0.50;;;;;;;0.07;90.77;101655.34;5106946;28;20028;-68
2024/01/12 04:22:37;;;;;;;0.68;0.68;;;;;;;0.13;90.67;101658.25;5106246;28;20491;-68
2024/01/12 04:25:02;;;;;;;1.17;1.15;;;;;;;0.02;90.89;101650.00;5105638;28;20012;-69
2024/01/12 04:27:29;;;;;;;1.85;1.75;;;;;;;-0.01;90.64;101648.16;5106734;28;20024;-68
2024/01/12 04:29:54;;;;;;;1.00;0.90;;;;;;;-0.17;90.22;101637.88;5105398;28;20468;-68
2024/01/12 04:32:20;;;;;;;2.17;1.50;;;;;;;-0.15;90.13;101646.53;5106768;28;20028;-69
2024/01/12 04:34:45;;;;;;;2.08;1.98;;;;;;;-0.22;90.20;101649.53;5106338;28;20048;-68
2024/01/12 04:37:10;;;;;;;0.82;0.82;;;;;;;-0.31;90.09;101649.88;5106613;28;20475;-68
2024/01/12 04:39:36;;;;;;;1.48;1.38;;;;;;;-0.27;90.29;101664.56;5106431;28;20027;-68
2024/01/12 04:42:01;;;;;;;1.92;1.83;;;;;;;-0.34;90.35;101649.72;5106648;28;20016;-69
2024/01/12 04:44:26;;;;;;;4.00;1.23;;;;;;;-0.33;90.48;101662.56;5106608;28;20031;-68
2024/01/12 04:46:52;;;;;;;1.20;0.98;;;;;;;-0.35;90.62;101659.03;5106243;28;20436;-68
2024/01/12 04:49:17;;;;;;;0.90;0.90;;;;;;;-0.40;90.71;101653.66;5106465;28;20020;-68
2024/01/12 04:51:42;;;;;;;0.80;0.80;;;;;;;-0.43;90.61;101648.41;5106261;28;20020;-68
2024/01/12 04:54:08;;;;;;;7.30;1.35;;;;;;;-0.50;90.56;101644.59;5106098;28;20031;-68
2024/01/12 04:56:33;;;;;;;1.48;1.38;;;;;;;-0.58;90.46;101645.88;5106143;28;20047;-68
2024/01/12 04:58:58;;;;;;;0.60;0.60;;;;;;;-0.58;90.29;101639.88;5106155;28;20024;-67
2024/01/12 05:01:24;;;;;;;0.80;0.80;;;;;;;-0.61;90.16;101635.47;5106058;28;20464;-68
2024/01/12 05:03:49;;;;;;;0.80;0.80;;;;;;;-0.64;90.29;101633.63;5106037;28;20028;-68
2024/01/12 05:06:15;;;;;;;4.68;2.67;;;;;;;-0.64;90.37;101630.22;5105718;28;20012;-68
2024/01/12 05:08:40;;;;;;;0.60;0.60;;;;;;;-0.65;90.36;101630.97;5104716;28;20016;-68
2024/01/12 05:11:05;;;;;;;1.30;1.27;;;;;;;-0.67;90.49;101627.47;5105924;28;20028;-68
2024/01/12 05:13:31;;;;;;;1.20;1.15;;;;;;;-0.71;90.50;101607.66;5105927;28;20090;-68
2024/01/12 05:15:56;;;;;;;1.50;0.90;;;;;;;-0.69;90.74;101601.00;5105722;28;20058;-68
2024/01/12 05:18:21;;;;;;;1.40;1.13;;;;;;;-0.68;90.79;101603.63;5105975;28;20090;-68
2024/01/12 05:20:47;;;;;;;1.33;1.23;;;;;;;-0.67;90.54;101594.31;5105918;28;20083;-67
2024/01/12 05:23:12;;;;;;;1.27;1.20;;;;;;;-0.65;90.55;101592.72;5105542;28;20035;-67
2024/01/12 05:25:37;;;;;;;7.78;1.42;;;;;;;-0.68;90.47;101584.91;5105921;28;20028;-67
2024/01/12 05:28:03;;;;;;;0.50;0.50;;;;;;;-0.75;90.53;101570.91;5105818;28;20024;-68
2024/01/12 05:30:30;;;;;;;7.63;1.60;;;;;;;-0.71;90.44;101564.31;5105780;28;20051;-67
2024/01/12 05:32:55;;;;;;;1.92;1.80;;;;;;;-0.72;90.39;101565.13;5103904;28;20047;-67
2024/01/12 05:35:21;;;;;;;0.75;0.75;;;;;;;-0.77;90.40;101542.75;5105088;28;20016;-67
2024/01/12 05:37:46;;;;;;;0.95;0.95;;;;;;;-0.72;90.27;101530.31;5105226;28;20058;-68
2024/01/12 05:40:11;;;;;;;1.23;1.15;;;;;;;-0.68;90.41;101533.88;5105813;28;20020;-68
2024/01/12 05:42:37;;;;;;;1.30;1.20;;;;;;;-0.70;90.45;101522.75;5105526;28;20054;-67
2024/01/12 05:45:02;;;;;;;1.25;1.05;;;;;;;-0.70;90.28;101515.94;5105562;28;20092;-67
2024/01/12 05:47:28;;;;;;;0.50;0.50;;;;;;;-0.76;89.97;101507.94;5105026;28;20083;-67
2024/01/12 05:49:53;;;;;;;0.63;0.63;;;;;;;-0.89;89.84;101507.28;5103984;28;20032;-68
2024/01/12 05:52:18;;;;;;;2.25;1.73;;;;;;;-0.83;89.69;101527.13;5105493;28;20024;-68
2024/01/12 05:54:44;;;;;;;0.50;0.50;;;;;;;-0.86;89.80;101513.34;5104958;28;20024;-68
2024/01/12 05:57:09;;;;;;;0.93;0.93;;;;;;;-0.86;90.04;101524.41;5105451;28;20098;-67
2024/01/12 05:59:35;;;;;;;0.75;0.75;;;;;;;-0.93;89.93;101514.66;5105121;28;20024;-68
2024/01/12 06:02:00;;;;;;;2.47;2.35;;;;;;;-0.81;90.06;101535.75;5104046;28;20079;-67
2024/01/12 06:04:25;;;;;;;1.10;0.88;;;;;;;-0.78;90.09;101540.13;5104913;28;20028;-68
2024/01/12 06:06:51;;;;;;;0.93;0.88;;;;;;;-0.77;90.36;101541.91;5105068;28;20016;-68
2024/01/12 06:09:17;;;;;;;0.60;0.60;;;;;;;-0.75;90.33;101541.19;5105074;28;20042;-67
2024/01/12 06:11:43;;;;;;;0.60;0.60;;;;;;;-0.88;90.38;101505.59;5104022;28;20026;-67
2024/01/12 06:14:09;;;;;;;1.48;1.38;;;;;;;-0.76;90.02;101534.34;5105290;28;20043;-67
2024/01/12 06:16:34;;;;;;;2.35;1.40;;;;;;;-0.71;90.33;101542.25;5105115;28;20047;-67
2024/01/12 06:19:00;;;;;;;0.70;0.70;;;;;;;-0.77;90.36;101540.22;5105332;28;20020;-68
2024/01/12 06:21:25;;;;;;;1.15;1.15;;;;;;;-0.76;90.41;101549.66;5105072;28;20020;-68
2024/01/12 06:23:51;;;;;;;0.70;0.70;;;;;;;-0.70;90.42;101554.19;5104674;28;20016;-70
2024/01/12 06:26:16;;;;;;;1.00;0.98;;;;;;;-0.67;90.33;101545.88;5103751;28;20013;-66
2024/01/12 06:28:42;;;;;;;0.85;0.85;;;;;;;-0.71;90.26;101536.25;5103785;28;20047;-67
2024/01/12 06:31:07;;;;;;;0.88;0.88;;;;;;;-0.71;90.34;101521.84;5105037;28;20051;-66
2024/01/12 06:33:34;;;;;;;2.08;1.98;;;;;;;-0.73;90.21;101514.88;5105058;28;20070;-67
2024/01/12 06:36:00;;;;;;;0.82;0.82;;;;;;;-0.70;90.16;101528.69;5104927;28;20016;-67
2024/01/12 06:38:26;;;;;;;0.50;0.50;;;;;;;-0.71;90.15;101520.97;5103578;28;20028;-66
2024/01/12 06:40:52;;;;;;;0.55;0.55;;;;;;;-0.76;90.20;101515.59;5105020;28;20031;-68
2024/01/12 06:43:17;;;;;;;0.60;0.60;;;;;;;-0.80;90.17;101516.25;5104932;28;20091;-67
2024/01/12 06:45:43;;;;;;;0.85;0.85;;;;;;;-0.85;90.23;101510.88;5107348;28;20024;-67
2024/01/12 06:48:09;;;;;;;0.85;0.85;;;;;;;-0.81;90.35;101520.44;5108996;28;20076;-66
2024/01/12 06:50:35;;;;;;;1.23;1.15;;;;;;;-0.78;90.39;101525.72;5108909;28;20202;-67
2024/01/12 06:53:01;;;;;;;0.63;0.63;;;;;;;-0.80;90.38;101522.19;5108067;28;20053;-67
2024/01/12 06:55:26;;;;;;;0.98;0.95;;;;;;;-0.73;90.56;101525.09;5108913;28;20020;-67
2024/01/12 06:57:51;;;;;;;0.82;0.82;;;;;;;-0.71;90.62;101519.28;5108633;28;20030;-67
2024/01/12 07:00:17;;;;;;;0.70;0.70;;;;;;;-0.68;90.66;101510.94;5108887;28;20023;-67
2024/01/12 07:02:42;;;;;;;0.80;0.80;;;;;;;-0.62;90.82;101521.47;5108738;28;20035;-66
2024/01/12 07:05:08;;;;;;;0.60;0.60;;;;;;;-0.58;90.80;101517.41;5108679;28;20134;-68
2024/01/12 07:07:33;;;;;;;0.88;0.85;;;;;;;-0.56;90.83;101521.81;5108538;28;20052;-66
2024/01/12 07:09:59;;;;;;;0.60;0.60;;;;;;;-0.53;90.77;101519.41;5108456;28;20026;-67
2024/01/12 07:12:24;;;;;;;1.48;1.38;;;;;;;-0.54;90.73;101504.91;5108526;28;20047;-67
2024/01/12 07:14:50;;;;;;;0.75;0.75;;;;;;;-0.49;90.80;101492.41;5108585;28;20024;-67
2024/01/12 07:17:16;;;;;;;0.88;0.88;;;;;;;-0.48;90.71;101489.09;5108187;28;20027;-67
2024/01/12 07:19:43;;;;;;;0.50;0.50;;;;;;;-0.45;90.53;101498.56;5108463;28;20424;-67
2024/01/12 07:22:09;;;;;;;0.60;0.60;;;;;;;-0.39;90.69;101497.25;5108375;28;20149;-67
2024/01/12 07:24:34;;;;;;;0.77;0.77;;;;;;;-0.40;90.54;101495.47;5108256;28;20037;-66
2024/01/12 07:26:59;;;;;;;1.08;1.08;;;;;;;-0.49;90.50;101472.00;5108113;28;20024;-67
2024/01/12 07:29:25;;;;;;;0.50;0.50;;;;;;;-0.41;90.43;101483.50;5108166;28;20103;-67
2024/01/12 07:31:50;;;;;;;0.65;0.65;;;;;;;-0.46;90.44;101481.53;5108096;28;20057;-68
2024/01/12 07:34:15;;;;;;;0.50;0.50;;;;;;;-0.54;90.47;101474.31;5106713;28;20048;-67
2024/01/12 07:36:41;;;;;;;0.95;0.95;;;;;;;-0.55;90.28;101477.66;5107761;28;20031;-67
2024/01/12 07:39:07;;;;;;;0.50;0.50;;;;;;;-0.47;90.30;101479.75;5107727;28;20089;-67
2024/01/12 07:41:33;;;;;;;1.85;1.05;;;;;;;-0.50;90.50;101488.13;5108013;28;20084;-67
2024/01/12 07:43:58;;;;;;;0.65;0.65;;;;;;;-0.54;90.42;101504.91;5107840;28;20470;-67
2024/01/12 07:46:23;;;;;;;0.60;0.60;;;;;;;-0.51;90.45;101499.97;5107701;28;20080;-67
2024/01/12 07:48:50;;;;;;;0.75;0.75;;;;;;;-0.49;90.56;101497.50;5106596;28;20058;-67
2024/01/12 07:51:16;;;;;;;0.85;0.85;;;;;;;-0.60;90.67;101494.38;5107835;28;20027;-66
2024/01/12 07:53:42;;;;;;;2.15;0.73;;;;;;;-0.62;90.29;101490.84;5107374;28;20038;-68
2024/01/12 07:56:07;;;;;;;2.55;2.45;;;;;;;-0.64;90.29;101492.47;5106994;28;20027;-68
2024/01/12 07:58:33;;;;;;;0.70;0.70;;;;;;;-0.63;90.61;101484.91;5107425;28;20093;-67
2024/01/12 08:00:58;;;;;;;0.60;0.60;;;;;;;-0.75;90.25;101459.59;5107557;28;20024;-68
2024/01/12 08:03:23;;;;;;;2.25;1.63;;;;;;;-0.64;90.22;101472.06;5107403;28;20525;-67
2024/01/12 08:05:49;;;;;;;1.88;1.77;;;;;;;-0.64;90.50;101487.38;5107307;28;20520;-67
2024/01/12 08:08:14;;;;;;;22.25;1.55;;;;;;;-0.59;90.52;101495.28;5107332;28;20031;-66
2024/01/12 08:10:40;;;;;;;0.73;0.73;;;;;;;-0.51;90.73;101499.09;5107386;28;20030;-67
2024/01/12 08:13:06;;;;;;;0.90;0.90;;;;;;;-0.42;91.12;101503.84;5105911;28;20259;-67
2024/01/12 08:15:32;;;;;;;2.45;1.60;;;;;;;-0.07;91.70;101488.66;5107041;28;20080;-67
2024/01/12 08:17:57;;;;;;;3.30;2.42;;;;;;;0.45;91.12;101489.59;5107111;28;20020;-67
2024/01/12 08:20:23;;;;;;;3.10;2.10;;;;;;;0.94;90.23;101480.06;5107291;28;20392;-67
2024/01/12 08:22:48;;;;;;;0.80;0.80;;;;;;;1.19;89.28;101479.56;5105539;28;20380;-66
2024/01/12 08:25:14;;;;;;;2.17;1.98;;;;;;;1.38;87.95;101476.97;5105748;28;20061;-67
2024/01/12 08:27:39;;;;;;;2.35;1.77;;;;;;;1.21;87.50;101459.16;5106592;28;20024;-67
2024/01/12 08:30:07;;;;;;;1.60;1.50;;;;;;;0.95;87.30;101459.69;5106055;28;20024;-68
2024/01/12 08:32:32;;;;;;;2.33;2.15;;;;;;;0.66;87.35;101471.03;5106343;28;20019;-67
2024/01/12 08:34:58;;;;;;;2.50;1.75;;;;;;;0.45;87.64;101467.47;5106971;28;20058;-67
2024/01/12 08:37:23;;;;;;;0.70;0.70;;;;;;;0.18;87.79;101442.28;5106723;28;20028;-67
2024/01/12 08:39:48;;;;;;;1.88;1.77;;;;;;;0.21;88.33;101452.66;5106673;28;20023;-68
2024/01/12 08:42:14;;;;;;;0.70;0.70;;;;;;;0.20;89.02;101450.03;5106870;28;20024;-66
2024/01/12 08:44:39;;;;;;;6.68;1.33;;;;;;;0.24;89.34;101454.47;5105436;28;20027;-67
2024/01/12 08:47:05;;;;;;;0.85;0.85;;;;;;;0.35;89.93;101449.94;5106785;28;20028;-67
2024/01/12 08:49:30;;;;;;;1.40;1.30;;;;;;;0.65;90.43;101439.50;5106602;28;20144;-67
2024/01/12 08:51:55;;;;;;;2.35;1.58;;;;;;;1.04;90.54;101446.44;5106491;28;20051;-66
2024/01/12 08:54:21;;;;;;;0.82;0.82;;;;;;;1.36;90.59;101441.09;5106401;28;20431;-67
2024/01/12 08:56:47;;;;;;;0.60;0.60;;;;;;;1.61;90.59;101426.88;5105090;28;20043;-67
2024/01/12 08:59:12;;;;;;;0.60;0.60;;;;;;;1.87;90.23;101429.69;5106494;28;20020;-68
2024/01/12 09:01:38;;;;;;;0.70;0.70;;;;;;;2.32;90.37;101428.16;5106467;28;20035;-67
2024/01/12 09:04:03;;;;;;;2.15;1.95;;;;;;;2.88;89.63;101424.41;5106422;28;20099;-67
2024/01/12 09:06:29;;;;;;;2.00;1.75;;;;;;;3.47;89.29;101424.09;5104697;28;20026;-66
2024/01/12 09:08:55;;;;;;;3.60;2.00;;;;;;;3.99;89.34;101425.97;5106123;28;20444;-66
2024/01/12 09:11:21;;;;;;;1.35;1.25;;;;;;;4.39;89.16;101423.88;5106199;28;20069;-67
2024/01/12 09:13:47;;;;;;;2.17;1.17;;;;;;;4.77;89.06;101424.28;5104773;28;20433;-67
2024/01/12 09:16:12;;;;;;;1.10;0.98;;;;;;;5.21;88.74;101423.03;5105976;28;20024;-66
2024/01/12 09:18:38;;;;;;;1.38;1.25;;;;;;;5.61;89.91;101422.47;5106192;28;20065;-67
2024/01/12 09:21:04;;;;;;;3.50;1.88;;;;;;;6.00;88.94;101426.09;5105948;28;20020;-68
2024/01/12 09:23:29;;;;;;;14.35;2.42;;;;;;;6.29;83.78;101426.03;5105791;28;20028;-67
2024/01/12 09:25:55;;;;;;;5.20;2.83;;;;;;;6.78;81.59;101431.53;5106083;28;20046;-68
2024/01/12 09:28:21;;;;;;;15.20;2.17;;;;;;;7.29;80.88;101423.19;5105991;28;20020;-67
2024/01/12 09:30:47;;;;;;;2.47;2.15;;;;;;;7.87;79.92;101422.66;5104613;28;20024;-67
2024/01/12 09:33:13;;;;;;;3.30;1.75;;;;;;;8.35;78.81;101425.22;5105599;28;20067;-67
2024/01/12 09:35:38;;;;;;;2.13;1.67;;;;;;;8.42;78.91;101418.44;5104634;28;20032;-67
2024/01/12 09:38:05;;;;;;;6.97;3.33;;;;;;;8.37;78.18;101425.25;5105481;28;20109;-66
2024/01/12 09:40:31;;;;;;;2.05;1.80;;;;;;;7.91;78.69;101423.56;5105965;28;20023;-67
2024/01/12 09:43:00;;;;;;;2.33;1.88;;;;;;;7.46;78.88;101414.94;5105700;28;20035;-68
2024/01/12 09:45:25;;;;;;;4.25;1.77;;;;;;;6.90;77.90;101414.59;5104516;28;20016;-68
2024/01/12 09:47:52;;;;;;;7.80;2.42;;;;;;;6.35;76.36;101422.72;5105778;28;20490;-67
2024/01/12 09:50:21;;;;;;;2.88;2.08;;;;;;;6.22;79.63;101418.94;5105779;28;20380;-67
2024/01/12 09:52:48;;;;;;;1.85;1.75;;;;;;;5.80;80.27;101419.56;5105311;28;20027;-66
2024/01/12 09:55:13;;;;;;;1.70;1.60;;;;;;;5.71;78.07;101416.72;5105674;28;20154;-67
2024/01/12 09:57:39;;;;;;;5.07;1.58;;;;;;;6.13;80.81;101423.06;5105478;28;20024;-67
2024/01/12 10:00:06;;;;;;;3.30;3.00;;;;;;;6.27;81.61;101412.22;5104875;28;20376;-68
2024/01/12 10:02:32;;;;;;;1.50;1.40;;;;;;;6.93;81.54;101415.53;5104180;28;20020;-68
2024/01/12 10:04:58;;;;;;;2.75;1.70;;;;;;;7.53;81.36;101417.69;5104066;28;20031;-68
2024/01/12 10:07:25;;;;;;;2.97;2.45;;;;;;;8.17;77.91;101420.59;5105614;28;20027;-67
2024/01/12 10:09:50;;;;;;;4.40;1.67;;;;;;;8.51;75.43;101425.50;5094846;22;20056;-66
2024/01/12 10:12:16;;;;;;;3.22;2.47;;;;;;;8.54;73.63;101426.44;5083570;28;20032;-66
2024/01/12 10:14:42;;;;;;;3.00;2.25;;;;;;;8.81;73.21;101432.03;5084410;28;20107;-65
2024/01/12 10:17:07;;;;;;;5.63;2.15;;;;;;;8.69;71.71;101419.75;5093483;22;20051;-63
2024/01/12 10:19:32;;;;;;;5.43;3.67;;;;;;;8.66;69.16;101425.75;5103150;28;20487;-63
2024/01/12 10:21:58;;;;;;;2.45;1.85;;;;;;;8.59;67.08;101423.06;5106675;28;20459;-63
2024/01/12 10:24:23;;;;;;;2.45;2.22;;;;;;;8.55;70.77;101402.31;5108778;28;20039;-64
2024/01/12 10:26:52;;;;;;;3.22;1.92;;;;;;;8.46;73.69;101421.94;5109320;28;20079;-63
2024/01/12 10:29:17;;;;;;;3.17;2.17;;;;;;;8.21;75.03;101417.22;5109494;28;20042;-62
2024/01/12 10:31:44;;;;;;;3.28;2.97;;;;;;;7.88;74.09;101411.47;5109197;28;20020;-65
2024/01/12 10:34:14;;;;;;;10.63;3.20;;;;;;;7.61;72.73;101417.84;5109445;28;20073;-63
2024/01/12 10:36:40;;;;;;;3.92;2.40;;;;;;;7.31;75.13;101421.53;5111570;22;20048;-65
2024/01/12 10:39:10;;;;;;;2.85;2.35;;;;;;;6.68;74.42;101424.41;5087018;28;20098;-65
2024/01/12 10:41:36;;;;;;;3.38;2.38;;;;;;;6.46;76.90;101416.13;5087753;28;20024;-64
2024/01/12 10:44:05;;;;;;;2.78;2.58;;;;;;;6.10;73.50;101397.19;5088698;28;20036;-65
2024/01/12 10:46:43;;;;;;;2.13;1.95;;;;;;;6.09;72.71;101387.69;5087181;28;20568;-65
2024/01/12 10:49:25;;;;;;;2.10;1.95;;;;;;;5.63;73.40;101379.56;5088358;28;20028;-64
2024/01/12 10:51:53;;;;;;;;;;;;;;;5.17;71.25;101369.69;5087548;28;20032;-64
2024/01/12 10:54:26;;;;;;;3.85;2.28;;;;;;;4.95;74.84;101375.06;5086954;28;20356;-64
2024/01/12 10:56:53;;;;;;;5.25;2.67;;;;;;;4.70;75.61;101376.00;5088222;28;20024;-65
2024/01/12 10:59:19;;;;;;;4.13;3.72;;;;;;;4.57;76.22;101359.31;5088216;28;20080;-65
2024/01/12 11:01:45;;;;;;;1.88;1.77;;;;;;;4.44;76.18;101369.22;5088557;28;20043;-64
2024/01/12 11:04:11;;;;;;;4.80;2.17;;;;;;;4.39;76.34;101373.34;5088402;28;20028;-65
2024/01/12 11:06:38;;;;;;;6.30;1.85;;;;;;;4.34;76.78;101356.88;5088185;28;20028;-65
2024/01/12 11:09:06;;;;;;;3.75;2.97;;;;;;;4.47;78.10;101364.16;5088016;28;20047;-64
2024/01/12 11:11:40;;;;;;;6.15;2.63;;;;;;;4.57;76.68;101360.19;5088049;28;20016;-64
2024/01/12 11:14:07;;;;;;;3.08;1.92;;;;;;;4.61;77.24;101344.84;5088110;28;20074;-65
2024/01/12 11:16:32;;;;;;;4.68;1.88;;;;;;;4.91;76.62;101338.91;5088149;28;20029;-66
2024/01/12 11:18:57;;;;;;;3.03;2.45;;;;;;;5.65;74.87;101360.75;5087943;28;20024;-65
2024/01/12 11:21:24;;;;;;;1.60;1.50;;;;;;;6.34;72.40;101357.41;5087948;28;20051;-64